sensor_id;sensor_type;location;lat;lon;timestamp;P1;durP1;ratioP1;P2;durP2;ratioP2
22924;SDS011;11628;51.072;3.712;2022-07-06T00:01:33;8.43;;;5.32;;
22924;SDS011;11628;51.072;3.712;2022-07-06T00:04:00;7.40;;;4.82;;
22924;SDS011;11628;51.072;3.712;2022-07-06T00:06:27;7.25;;;4.55;;
22924;SDS011;11628;51.072;3.712;2022-07-06T00:08:52;6.63;;;4.50;;
22924;SDS011;11628;51.072;3.712;2022-07-06T00:11:19;7.38;;;5.07;;
22924;SDS011;11628;51.072;3.712;2022-07-06T00:13:44;9.57;;;6.10;;
22924;SDS011;11628;51.072;3.712;2022-07-06T00:16:10;8.65;;;6.38;;
22924;SDS011;11628;51.072;3.712;2022-07-06T00:18:36;8.05;;;6.30;;
22924;SDS011;11628;51.072;3.712;2022-07-06T00:21:02;10.68;;;7.10;;
22924;SDS011;11628;51.072;3.712;2022-07-06T00:23:28;9.25;;;7.30;;
22924;SDS011;11628;51.072;3.712;2022-07-06T00:25:54;9.77;;;8.10;;
22924;SDS011;11628;51.072;3.712;2022-07-06T00:28:19;10.38;;;8.35;;
22924;SDS011;11628;51.072;3.712;2022-07-06T00:30:45;10.93;;;7.93;;
22924;SDS011;11628;51.072;3.712;2022-07-06T00:33:11;7.43;;;6.65;;
22924;SDS011;11628;51.072;3.712;2022-07-06T00:35:37;8.82;;;6.35;;
22924;SDS011;11628;51.072;3.712;2022-07-06T00:38:03;10.75;;;7.38;;
22924;SDS011;11628;51.072;3.712;2022-07-06T00:40:29;9.65;;;6.85;;
22924;SDS011;11628;51.072;3.712;2022-07-06T00:42:55;7.70;;;6.50;;
22924;SDS011;11628;51.072;3.712;2022-07-06T00:45:21;8.63;;;6.53;;
22924;SDS011;11628;51.072;3.712;2022-07-06T00:47:47;10.25;;;8.40;;
22924;SDS011;11628;51.072;3.712;2022-07-06T00:50:14;10.80;;;8.55;;
22924;SDS011;11628;51.072;3.712;2022-07-06T00:52:48;7.53;;;6.75;;
22924;SDS011;11628;51.072;3.712;2022-07-06T00:55:20;9.35;;;6.60;;
22924;SDS011;11628;51.072;3.712;2022-07-06T00:57:50;9.95;;;6.28;;
22924;SDS011;11628;51.072;3.712;2022-07-06T01:00:17;7.60;;;5.97;;
22924;SDS011;11628;51.072;3.712;2022-07-06T01:02:45;10.00;;;7.63;;
22924;SDS011;11628;51.072;3.712;2022-07-06T01:05:12;8.93;;;7.18;;
22924;SDS011;11628;51.072;3.712;2022-07-06T01:07:43;9.75;;;5.90;;
22924;SDS011;11628;51.072;3.712;2022-07-06T01:10:11;8.75;;;7.38;;
22924;SDS011;11628;51.072;3.712;2022-07-06T01:12:38;12.52;;;9.60;;
22924;SDS011;11628;51.072;3.712;2022-07-06T01:15:06;11.25;;;9.32;;
22924;SDS011;11628;51.072;3.712;2022-07-06T01:17:34;11.60;;;9.15;;
22924;SDS011;11628;51.072;3.712;2022-07-06T01:20:10;11.27;;;8.68;;
22924;SDS011;11628;51.072;3.712;2022-07-06T01:22:37;11.05;;;8.35;;
22924;SDS011;11628;51.072;3.712;2022-07-06T01:25:04;10.32;;;7.22;;
22924;SDS011;11628;51.072;3.712;2022-07-06T01:27:31;9.45;;;6.88;;
22924;SDS011;11628;51.072;3.712;2022-07-06T01:29:59;8.52;;;6.15;;
22924;SDS011;11628;51.072;3.712;2022-07-06T01:32:25;9.25;;;6.15;;
22924;SDS011;11628;51.072;3.712;2022-07-06T01:34:51;13.27;;;7.10;;
22924;SDS011;11628;51.072;3.712;2022-07-06T01:37:17;9.38;;;6.60;;
22924;SDS011;11628;51.072;3.712;2022-07-06T01:39:42;11.85;;;6.07;;
22924;SDS011;11628;51.072;3.712;2022-07-06T01:42:08;8.02;;;5.95;;
22924;SDS011;11628;51.072;3.712;2022-07-06T01:44:34;8.57;;;5.28;;
22924;SDS011;11628;51.072;3.712;2022-07-06T01:47:00;8.85;;;5.88;;
22924;SDS011;11628;51.072;3.712;2022-07-06T01:49:25;8.25;;;5.90;;
22924;SDS011;11628;51.072;3.712;2022-07-06T01:51:51;6.35;;;4.95;;
22924;SDS011;11628;51.072;3.712;2022-07-06T01:54:17;7.03;;;4.88;;
22924;SDS011;11628;51.072;3.712;2022-07-06T01:56:42;9.20;;;5.60;;
22924;SDS011;11628;51.072;3.712;2022-07-06T01:59:08;7.68;;;5.57;;
22924;SDS011;11628;51.072;3.712;2022-07-06T02:01:34;8.52;;;5.43;;
22924;SDS011;11628;51.072;3.712;2022-07-06T02:04:00;5.97;;;5.18;;
22924;SDS011;11628;51.072;3.712;2022-07-06T02:06:26;11.23;;;5.32;;
22924;SDS011;11628;51.072;3.712;2022-07-06T02:08:51;7.35;;;5.50;;
22924;SDS011;11628;51.072;3.712;2022-07-06T02:11:19;7.28;;;5.22;;
22924;SDS011;11628;51.072;3.712;2022-07-06T02:13:44;6.95;;;4.97;;
22924;SDS011;11628;51.072;3.712;2022-07-06T02:16:10;9.80;;;5.22;;
22924;SDS011;11628;51.072;3.712;2022-07-06T02:18:36;8.45;;;6.30;;
22924;SDS011;11628;51.072;3.712;2022-07-06T02:21:03;9.75;;;6.10;;
22924;SDS011;11628;51.072;3.712;2022-07-06T02:23:29;7.50;;;6.03;;
22924;SDS011;11628;51.072;3.712;2022-07-06T02:25:55;8.82;;;6.28;;
22924;SDS011;11628;51.072;3.712;2022-07-06T02:28:21;8.05;;;6.18;;
22924;SDS011;11628;51.072;3.712;2022-07-06T02:30:47;7.82;;;6.38;;
22924;SDS011;11628;51.072;3.712;2022-07-06T02:33:12;10.70;;;6.25;;
22924;SDS011;11628;51.072;3.712;2022-07-06T02:35:38;8.85;;;6.63;;
22924;SDS011;11628;51.072;3.712;2022-07-06T02:38:07;10.07;;;6.68;;
22924;SDS011;11628;51.072;3.712;2022-07-06T02:40:34;10.85;;;7.82;;
22924;SDS011;11628;51.072;3.712;2022-07-06T02:43:02;7.97;;;6.88;;
22924;SDS011;11628;51.072;3.712;2022-07-06T02:45:27;7.50;;;6.80;;
22924;SDS011;11628;51.072;3.712;2022-07-06T02:47:53;8.38;;;7.10;;
22924;SDS011;11628;51.072;3.712;2022-07-06T02:50:21;11.02;;;7.32;;
22924;SDS011;11628;51.072;3.712;2022-07-06T02:52:46;11.13;;;7.93;;
22924;SDS011;11628;51.072;3.712;2022-07-06T02:55:12;10.55;;;6.65;;
22924;SDS011;11628;51.072;3.712;2022-07-06T02:57:38;10.20;;;6.60;;
22924;SDS011;11628;51.072;3.712;2022-07-06T03:00:04;8.02;;;7.20;;
22924;SDS011;11628;51.072;3.712;2022-07-06T03:02:30;10.93;;;7.50;;
22924;SDS011;11628;51.072;3.712;2022-07-06T03:04:56;8.52;;;7.10;;
22924;SDS011;11628;51.072;3.712;2022-07-06T03:07:23;12.95;;;7.65;;
22924;SDS011;11628;51.072;3.712;2022-07-06T03:09:49;11.80;;;6.97;;
22924;SDS011;11628;51.072;3.712;2022-07-06T03:12:14;10.05;;;7.32;;
22924;SDS011;11628;51.072;3.712;2022-07-06T03:14:41;8.95;;;7.43;;
22924;SDS011;11628;51.072;3.712;2022-07-06T03:17:07;9.65;;;8.20;;
22924;SDS011;11628;51.072;3.712;2022-07-06T03:19:33;11.48;;;7.63;;
22924;SDS011;11628;51.072;3.712;2022-07-06T03:21:59;9.35;;;7.25;;
22924;SDS011;11628;51.072;3.712;2022-07-06T03:24:24;8.80;;;7.38;;
22924;SDS011;11628;51.072;3.712;2022-07-06T03:26:50;9.82;;;7.85;;
22924;SDS011;11628;51.072;3.712;2022-07-06T03:29:16;9.77;;;8.25;;
22924;SDS011;11628;51.072;3.712;2022-07-06T03:31:43;9.55;;;7.95;;
22924;SDS011;11628;51.072;3.712;2022-07-06T03:34:09;11.00;;;7.63;;
22924;SDS011;11628;51.072;3.712;2022-07-06T03:36:35;13.27;;;9.02;;
22924;SDS011;11628;51.072;3.712;2022-07-06T03:39:01;10.68;;;8.85;;
22924;SDS011;11628;51.072;3.712;2022-07-06T03:41:26;10.35;;;9.00;;
22924;SDS011;11628;51.072;3.712;2022-07-06T03:43:52;11.95;;;8.15;;
22924;SDS011;11628;51.072;3.712;2022-07-06T03:46:18;10.98;;;8.55;;
22924;SDS011;11628;51.072;3.712;2022-07-06T03:48:44;14.25;;;8.13;;
22924;SDS011;11628;51.072;3.712;2022-07-06T03:51:09;11.30;;;8.98;;
22924;SDS011;11628;51.072;3.712;2022-07-06T03:53:36;11.95;;;9.38;;
22924;SDS011;11628;51.072;3.712;2022-07-06T03:56:01;13.15;;;9.35;;
22924;SDS011;11628;51.072;3.712;2022-07-06T03:58:46;10.73;;;8.50;;
22924;SDS011;11628;51.072;3.712;2022-07-06T04:01:11;12.48;;;9.13;;
22924;SDS011;11628;51.072;3.712;2022-07-06T04:03:37;10.27;;;8.60;;
22924;SDS011;11628;51.072;3.712;2022-07-06T04:06:03;10.50;;;8.02;;
22924;SDS011;11628;51.072;3.712;2022-07-06T04:08:29;10.25;;;7.72;;
22924;SDS011;11628;51.072;3.712;2022-07-06T04:10:55;9.00;;;7.72;;
22924;SDS011;11628;51.072;3.712;2022-07-06T04:13:21;11.07;;;8.98;;
22924;SDS011;11628;51.072;3.712;2022-07-06T04:15:47;10.25;;;7.85;;
22924;SDS011;11628;51.072;3.712;2022-07-06T04:18:12;10.00;;;7.45;;
22924;SDS011;11628;51.072;3.712;2022-07-06T04:20:38;7.80;;;6.75;;
22924;SDS011;11628;51.072;3.712;2022-07-06T04:23:04;9.05;;;7.90;;
22924;SDS011;11628;51.072;3.712;2022-07-06T04:25:30;9.90;;;7.38;;
22924;SDS011;11628;51.072;3.712;2022-07-06T04:27:56;10.90;;;7.90;;
22924;SDS011;11628;51.072;3.712;2022-07-06T04:30:21;8.13;;;7.00;;
22924;SDS011;11628;51.072;3.712;2022-07-06T04:32:47;8.98;;;8.05;;
22924;SDS011;11628;51.072;3.712;2022-07-06T04:35:13;11.63;;;8.27;;
22924;SDS011;11628;51.072;3.712;2022-07-06T04:37:39;9.68;;;7.20;;
22924;SDS011;11628;51.072;3.712;2022-07-06T04:40:04;9.68;;;7.85;;
22924;SDS011;11628;51.072;3.712;2022-07-06T04:42:30;12.15;;;7.40;;
22924;SDS011;11628;51.072;3.712;2022-07-06T04:44:56;12.98;;;9.32;;
22924;SDS011;11628;51.072;3.712;2022-07-06T04:47:22;11.90;;;8.93;;
22924;SDS011;11628;51.072;3.712;2022-07-06T04:49:48;10.98;;;8.10;;
22924;SDS011;11628;51.072;3.712;2022-07-06T04:52:13;10.35;;;8.40;;
22924;SDS011;11628;51.072;3.712;2022-07-06T04:54:39;11.38;;;8.23;;
22924;SDS011;11628;51.072;3.712;2022-07-06T04:57:05;10.05;;;8.48;;
22924;SDS011;11628;51.072;3.712;2022-07-06T04:59:30;10.65;;;8.63;;
22924;SDS011;11628;51.072;3.712;2022-07-06T05:01:56;10.27;;;8.57;;
22924;SDS011;11628;51.072;3.712;2022-07-06T05:04:22;11.07;;;9.93;;
22924;SDS011;11628;51.072;3.712;2022-07-06T05:06:49;10.98;;;8.40;;
22924;SDS011;11628;51.072;3.712;2022-07-06T05:09:15;12.07;;;9.20;;
22924;SDS011;11628;51.072;3.712;2022-07-06T05:11:41;11.63;;;8.60;;
22924;SDS011;11628;51.072;3.712;2022-07-06T05:14:07;11.88;;;9.52;;
22924;SDS011;11628;51.072;3.712;2022-07-06T05:16:33;13.90;;;10.77;;
22924;SDS011;11628;51.072;3.712;2022-07-06T05:18:58;14.07;;;10.52;;
22924;SDS011;11628;51.072;3.712;2022-07-06T05:21:24;10.77;;;9.68;;
22924;SDS011;11628;51.072;3.712;2022-07-06T05:23:50;13.13;;;9.38;;
22924;SDS011;11628;51.072;3.712;2022-07-06T05:26:16;13.77;;;9.82;;
22924;SDS011;11628;51.072;3.712;2022-07-06T05:28:42;11.52;;;9.75;;
22924;SDS011;11628;51.072;3.712;2022-07-06T05:31:07;10.90;;;9.05;;
22924;SDS011;11628;51.072;3.712;2022-07-06T05:33:33;11.45;;;9.18;;
22924;SDS011;11628;51.072;3.712;2022-07-06T05:35:59;12.55;;;9.63;;
22924;SDS011;11628;51.072;3.712;2022-07-06T05:38:25;12.15;;;10.38;;
22924;SDS011;11628;51.072;3.712;2022-07-06T05:40:50;13.43;;;10.77;;
22924;SDS011;11628;51.072;3.712;2022-07-06T05:43:16;13.85;;;9.90;;
22924;SDS011;11628;51.072;3.712;2022-07-06T05:45:43;13.85;;;9.90;;
22924;SDS011;11628;51.072;3.712;2022-07-06T05:48:08;12.05;;;9.90;;
22924;SDS011;11628;51.072;3.712;2022-07-06T05:50:53;12.55;;;9.38;;
22924;SDS011;11628;51.072;3.712;2022-07-06T05:53:18;13.05;;;9.50;;
22924;SDS011;11628;51.072;3.712;2022-07-06T05:55:45;14.40;;;9.73;;
22924;SDS011;11628;51.072;3.712;2022-07-06T05:58:11;13.23;;;9.70;;
22924;SDS011;11628;51.072;3.712;2022-07-06T06:00:37;12.55;;;9.93;;
22924;SDS011;11628;51.072;3.712;2022-07-06T06:03:02;12.43;;;9.63;;
22924;SDS011;11628;51.072;3.712;2022-07-06T06:05:28;11.88;;;9.38;;
22924;SDS011;11628;51.072;3.712;2022-07-06T06:07:54;11.52;;;9.90;;
22924;SDS011;11628;51.072;3.712;2022-07-06T06:10:19;13.35;;;9.02;;
22924;SDS011;11628;51.072;3.712;2022-07-06T06:12:49;10.20;;;8.35;;
22924;SDS011;11628;51.072;3.712;2022-07-06T06:15:15;13.05;;;9.18;;
22924;SDS011;11628;51.072;3.712;2022-07-06T06:17:41;14.25;;;9.55;;
22924;SDS011;11628;51.072;3.712;2022-07-06T06:20:08;16.35;;;9.27;;
22924;SDS011;11628;51.072;3.712;2022-07-06T06:22:49;10.27;;;8.07;;
22924;SDS011;11628;51.072;3.712;2022-07-06T06:25:17;10.55;;;8.00;;
22924;SDS011;11628;51.072;3.712;2022-07-06T06:27:45;9.30;;;7.72;;
22924;SDS011;11628;51.072;3.712;2022-07-06T06:30:11;9.27;;;8.35;;
22924;SDS011;11628;51.072;3.712;2022-07-06T06:32:38;8.70;;;7.50;;
22924;SDS011;11628;51.072;3.712;2022-07-06T06:35:04;9.38;;;8.43;;
22924;SDS011;11628;51.072;3.712;2022-07-06T06:37:31;11.13;;;6.95;;
22924;SDS011;11628;51.072;3.712;2022-07-06T06:39:57;8.85;;;6.38;;
22924;SDS011;11628;51.072;3.712;2022-07-06T06:42:22;9.75;;;6.90;;
22924;SDS011;11628;51.072;3.712;2022-07-06T06:44:48;9.85;;;6.25;;
22924;SDS011;11628;51.072;3.712;2022-07-06T06:47:14;8.07;;;5.72;;
22924;SDS011;11628;51.072;3.712;2022-07-06T06:49:40;7.22;;;6.22;;
22924;SDS011;11628;51.072;3.712;2022-07-06T06:52:05;7.93;;;6.47;;
22924;SDS011;11628;51.072;3.712;2022-07-06T06:54:31;7.65;;;5.50;;
22924;SDS011;11628;51.072;3.712;2022-07-06T06:56:57;5.40;;;3.55;;
22924;SDS011;11628;51.072;3.712;2022-07-06T06:59:23;5.45;;;4.45;;
22924;SDS011;11628;51.072;3.712;2022-07-06T07:01:49;7.13;;;4.30;;
22924;SDS011;11628;51.072;3.712;2022-07-06T07:04:14;5.95;;;4.10;;
22924;SDS011;11628;51.072;3.712;2022-07-06T07:06:40;6.97;;;4.05;;
22924;SDS011;11628;51.072;3.712;2022-07-06T07:09:06;7.35;;;5.10;;
22924;SDS011;11628;51.072;3.712;2022-07-06T07:11:33;9.18;;;5.25;;
22924;SDS011;11628;51.072;3.712;2022-07-06T07:13:59;7.78;;;5.10;;
22924;SDS011;11628;51.072;3.712;2022-07-06T07:16:25;6.43;;;4.50;;
22924;SDS011;11628;51.072;3.712;2022-07-06T07:18:51;7.50;;;4.70;;
22924;SDS011;11628;51.072;3.712;2022-07-06T07:21:17;5.28;;;4.10;;
22924;SDS011;11628;51.072;3.712;2022-07-06T07:23:43;6.22;;;4.35;;
22924;SDS011;11628;51.072;3.712;2022-07-06T07:26:09;8.40;;;4.40;;
22924;SDS011;11628;51.072;3.712;2022-07-06T07:28:35;6.60;;;4.72;;
22924;SDS011;11628;51.072;3.712;2022-07-06T07:31:01;4.47;;;3.20;;
22924;SDS011;11628;51.072;3.712;2022-07-06T07:33:26;5.93;;;3.38;;
22924;SDS011;11628;51.072;3.712;2022-07-06T07:35:52;7.13;;;3.80;;
22924;SDS011;11628;51.072;3.712;2022-07-06T07:38:18;5.93;;;3.55;;
22924;SDS011;11628;51.072;3.712;2022-07-06T07:40:44;4.93;;;3.63;;
22924;SDS011;11628;51.072;3.712;2022-07-06T07:43:10;6.40;;;2.97;;
22924;SDS011;11628;51.072;3.712;2022-07-06T07:45:36;5.88;;;3.25;;
22924;SDS011;11628;51.072;3.712;2022-07-06T07:48:02;4.07;;;2.63;;
22924;SDS011;11628;51.072;3.712;2022-07-06T07:50:28;6.85;;;2.70;;
22924;SDS011;11628;51.072;3.712;2022-07-06T07:52:54;4.38;;;2.90;;
22924;SDS011;11628;51.072;3.712;2022-07-06T07:55:20;6.00;;;2.65;;
22924;SDS011;11628;51.072;3.712;2022-07-06T07:57:46;3.88;;;2.03;;
22924;SDS011;11628;51.072;3.712;2022-07-06T08:00:11;5.90;;;2.10;;
22924;SDS011;11628;51.072;3.712;2022-07-06T08:02:38;4.78;;;2.47;;
22924;SDS011;11628;51.072;3.712;2022-07-06T08:05:04;4.05;;;2.92;;
22924;SDS011;11628;51.072;3.712;2022-07-06T08:07:30;6.95;;;3.05;;
22924;SDS011;11628;51.072;3.712;2022-07-06T08:09:55;13.50;;;3.00;;
22924;SDS011;11628;51.072;3.712;2022-07-06T08:12:21;6.20;;;3.17;;
22924;SDS011;11628;51.072;3.712;2022-07-06T08:14:47;6.82;;;3.58;;
22924;SDS011;11628;51.072;3.712;2022-07-06T08:17:13;6.07;;;3.10;;
22924;SDS011;11628;51.072;3.712;2022-07-06T08:19:38;8.52;;;2.28;;
22924;SDS011;11628;51.072;3.712;2022-07-06T08:22:04;3.65;;;2.33;;
22924;SDS011;11628;51.072;3.712;2022-07-06T08:24:33;8.02;;;2.75;;
22924;SDS011;11628;51.072;3.712;2022-07-06T08:27:00;6.10;;;2.55;;
22924;SDS011;11628;51.072;3.712;2022-07-06T08:29:25;6.70;;;2.40;;
22924;SDS011;11628;51.072;3.712;2022-07-06T08:31:51;5.97;;;3.05;;
22924;SDS011;11628;51.072;3.712;2022-07-06T08:34:17;8.15;;;2.70;;
22924;SDS011;11628;51.072;3.712;2022-07-06T08:36:43;6.22;;;2.70;;
22924;SDS011;11628;51.072;3.712;2022-07-06T08:39:08;5.47;;;3.40;;
22924;SDS011;11628;51.072;3.712;2022-07-06T08:41:34;8.07;;;3.03;;
22924;SDS011;11628;51.072;3.712;2022-07-06T08:44:03;7.10;;;3.40;;
22924;SDS011;11628;51.072;3.712;2022-07-06T08:46:30;7.07;;;3.17;;
22924;SDS011;11628;51.072;3.712;2022-07-06T08:48:57;7.20;;;3.55;;
22924;SDS011;11628;51.072;3.712;2022-07-06T08:51:24;5.18;;;3.95;;
22924;SDS011;11628;51.072;3.712;2022-07-06T08:53:50;4.90;;;2.50;;
22924;SDS011;11628;51.072;3.712;2022-07-06T08:56:17;7.28;;;3.00;;
22924;SDS011;11628;51.072;3.712;2022-07-06T08:58:44;6.72;;;2.80;;
22924;SDS011;11628;51.072;3.712;2022-07-06T09:01:10;4.65;;;2.92;;
22924;SDS011;11628;51.072;3.712;2022-07-06T09:03:36;5.35;;;2.75;;
22924;SDS011;11628;51.072;3.712;2022-07-06T09:06:05;5.88;;;3.38;;
22924;SDS011;11628;51.072;3.712;2022-07-06T09:08:32;7.60;;;3.05;;
22924;SDS011;11628;51.072;3.712;2022-07-06T09:10:58;5.47;;;2.90;;
22924;SDS011;11628;51.072;3.712;2022-07-06T09:13:24;6.35;;;2.50;;
22924;SDS011;11628;51.072;3.712;2022-07-06T09:15:49;4.05;;;2.30;;
22924;SDS011;11628;51.072;3.712;2022-07-06T09:18:15;6.07;;;2.90;;
22924;SDS011;11628;51.072;3.712;2022-07-06T09:20:41;6.13;;;2.70;;
22924;SDS011;11628;51.072;3.712;2022-07-06T09:23:07;7.22;;;3.35;;
22924;SDS011;11628;51.072;3.712;2022-07-06T09:25:33;6.18;;;2.45;;
22924;SDS011;11628;51.072;3.712;2022-07-06T09:27:59;5.60;;;2.70;;
22924;SDS011;11628;51.072;3.712;2022-07-06T09:30:27;7.07;;;3.15;;
22924;SDS011;11628;51.072;3.712;2022-07-06T09:32:55;6.90;;;2.80;;
22924;SDS011;11628;51.072;3.712;2022-07-06T09:38:04;7.25;;;2.67;;
22924;SDS011;11628;51.072;3.712;2022-07-06T09:40:32;6.85;;;2.38;;
22924;SDS011;11628;51.072;3.712;2022-07-06T09:45:47;6.47;;;3.83;;
22924;SDS011;11628;51.072;3.712;2022-07-06T09:51:07;8.98;;;3.00;;
22924;SDS011;11628;51.072;3.712;2022-07-06T09:53:34;7.65;;;2.78;;
22924;SDS011;11628;51.072;3.712;2022-07-06T09:56:00;4.75;;;2.63;;
22924;SDS011;11628;51.072;3.712;2022-07-06T09:58:27;5.38;;;2.25;;
22924;SDS011;11628;51.072;3.712;2022-07-06T10:00:53;6.20;;;2.70;;
22924;SDS011;11628;51.072;3.712;2022-07-06T10:03:18;6.30;;;2.40;;
22924;SDS011;11628;51.072;3.712;2022-07-06T10:05:45;4.85;;;2.63;;
22924;SDS011;11628;51.072;3.712;2022-07-06T10:08:13;7.22;;;3.25;;
22924;SDS011;11628;51.072;3.712;2022-07-06T10:10:40;6.22;;;3.25;;
22924;SDS011;11628;51.072;3.712;2022-07-06T10:13:07;6.40;;;2.75;;
22924;SDS011;11628;51.072;3.712;2022-07-06T10:15:34;4.53;;;2.60;;
22924;SDS011;11628;51.072;3.712;2022-07-06T10:18:07;5.95;;;2.35;;
22924;SDS011;11628;51.072;3.712;2022-07-06T10:20:35;4.80;;;2.30;;
22924;SDS011;11628;51.072;3.712;2022-07-06T10:23:03;5.53;;;1.83;;
22924;SDS011;11628;51.072;3.712;2022-07-06T10:25:30;6.13;;;2.08;;
22924;SDS011;11628;51.072;3.712;2022-07-06T10:27:57;5.60;;;1.98;;
22924;SDS011;11628;51.072;3.712;2022-07-06T10:30:24;4.00;;;3.17;;
22924;SDS011;11628;51.072;3.712;2022-07-06T10:32:50;3.70;;;1.95;;
22924;SDS011;11628;51.072;3.712;2022-07-06T10:35:20;6.15;;;1.83;;
22924;SDS011;11628;51.072;3.712;2022-07-06T10:38:02;4.32;;;1.95;;
22924;SDS011;11628;51.072;3.712;2022-07-06T10:40:36;5.00;;;2.03;;
22924;SDS011;11628;51.072;3.712;2022-07-06T10:43:21;5.65;;;2.47;;
22924;SDS011;11628;51.072;3.712;2022-07-06T10:53:21;5.75;;;2.08;;
22924;SDS011;11628;51.072;3.712;2022-07-06T10:55:52;4.47;;;1.90;;
22924;SDS011;11628;51.072;3.712;2022-07-06T10:58:33;5.75;;;1.70;;
22924;SDS011;11628;51.072;3.712;2022-07-06T11:01:10;3.97;;;2.08;;
22924;SDS011;11628;51.072;3.712;2022-07-06T11:03:40;5.78;;;2.42;;
22924;SDS011;11628;51.072;3.712;2022-07-06T11:06:54;6.10;;;2.22;;
22924;SDS011;11628;51.072;3.712;2022-07-06T11:09:06;4.90;;;1.80;;
22924;SDS011;11628;51.072;3.712;2022-07-06T11:14:06;4.00;;;2.00;;
22924;SDS011;11628;51.072;3.712;2022-07-06T11:19:08;2.78;;;1.60;;
22924;SDS011;11628;51.072;3.712;2022-07-06T11:24:17;5.03;;;1.83;;
22924;SDS011;11628;51.072;3.712;2022-07-06T11:26:48;3.13;;;1.52;;
22924;SDS011;11628;51.072;3.712;2022-07-06T11:29:17;4.90;;;1.80;;
22924;SDS011;11628;51.072;3.712;2022-07-06T11:31:46;5.22;;;2.33;;
22924;SDS011;11628;51.072;3.712;2022-07-06T11:34:13;3.85;;;1.75;;
22924;SDS011;11628;51.072;3.712;2022-07-06T11:36:47;7.00;;;1.90;;
22924;SDS011;11628;51.072;3.712;2022-07-06T11:39:14;5.55;;;1.75;;
22924;SDS011;11628;51.072;3.712;2022-07-06T11:41:41;3.60;;;1.73;;
22924;SDS011;11628;51.072;3.712;2022-07-06T11:44:07;4.18;;;1.70;;
22924;SDS011;11628;51.072;3.712;2022-07-06T11:46:33;4.30;;;2.42;;
22924;SDS011;11628;51.072;3.712;2022-07-06T11:49:00;6.68;;;1.85;;
22924;SDS011;11628;51.072;3.712;2022-07-06T11:51:31;8.20;;;1.75;;
22924;SDS011;11628;51.072;3.712;2022-07-06T11:53:59;3.72;;;2.55;;
22924;SDS011;11628;51.072;3.712;2022-07-06T11:56:26;4.30;;;1.55;;
22924;SDS011;11628;51.072;3.712;2022-07-06T11:58:56;3.78;;;2.20;;
22924;SDS011;11628;51.072;3.712;2022-07-06T12:01:23;4.57;;;1.80;;
22924;SDS011;11628;51.072;3.712;2022-07-06T12:03:51;4.03;;;2.10;;
22924;SDS011;11628;51.072;3.712;2022-07-06T12:08:47;5.75;;;3.20;;
22924;SDS011;11628;51.072;3.712;2022-07-06T12:11:27;5.20;;;2.38;;
22924;SDS011;11628;51.072;3.712;2022-07-06T12:13:58;6.30;;;2.72;;
22924;SDS011;11628;51.072;3.712;2022-07-06T12:16:33;8.45;;;3.00;;
22924;SDS011;11628;51.072;3.712;2022-07-06T12:19:01;4.85;;;2.03;;
22924;SDS011;11628;51.072;3.712;2022-07-06T12:21:28;3.13;;;2.10;;
22924;SDS011;11628;51.072;3.712;2022-07-06T12:23:55;6.45;;;2.50;;
22924;SDS011;11628;51.072;3.712;2022-07-06T12:26:22;4.85;;;3.30;;
22924;SDS011;11628;51.072;3.712;2022-07-06T12:29:03;5.97;;;2.38;;
22924;SDS011;11628;51.072;3.712;2022-07-06T12:31:41;5.72;;;2.40;;
22924;SDS011;11628;51.072;3.712;2022-07-06T12:34:26;5.57;;;2.83;;
22924;SDS011;11628;51.072;3.712;2022-07-06T12:36:56;3.80;;;2.40;;
22924;SDS011;11628;51.072;3.712;2022-07-06T12:39:26;4.50;;;2.55;;
22924;SDS011;11628;51.072;3.712;2022-07-06T12:41:54;4.97;;;2.60;;
22924;SDS011;11628;51.072;3.712;2022-07-06T12:44:25;7.78;;;3.10;;
22924;SDS011;11628;51.072;3.712;2022-07-06T12:47:04;5.10;;;2.55;;
22924;SDS011;11628;51.072;3.712;2022-07-06T12:49:31;4.68;;;2.67;;
22924;SDS011;11628;51.072;3.712;2022-07-06T12:54:40;5.40;;;3.17;;
22924;SDS011;11628;51.072;3.712;2022-07-06T12:59:44;8.00;;;2.90;;
22924;SDS011;11628;51.072;3.712;2022-07-06T13:02:21;8.70;;;3.35;;
22924;SDS011;11628;51.072;3.712;2022-07-06T13:04:58;6.72;;;3.88;;
22924;SDS011;11628;51.072;3.712;2022-07-06T13:07:27;6.60;;;3.40;;
22924;SDS011;11628;51.072;3.712;2022-07-06T13:09:54;5.72;;;3.20;;
22924;SDS011;11628;51.072;3.712;2022-07-06T13:12:20;7.05;;;4.45;;
22924;SDS011;11628;51.072;3.712;2022-07-06T13:14:47;9.00;;;4.18;;
22924;SDS011;11628;51.072;3.712;2022-07-06T13:17:13;6.93;;;3.97;;
22924;SDS011;11628;51.072;3.712;2022-07-06T13:19:39;9.82;;;3.55;;
22924;SDS011;11628;51.072;3.712;2022-07-06T13:22:05;7.80;;;3.63;;
22924;SDS011;11628;51.072;3.712;2022-07-06T13:24:31;7.45;;;4.68;;
22924;SDS011;11628;51.072;3.712;2022-07-06T13:26:57;7.60;;;4.85;;
22924;SDS011;11628;51.072;3.712;2022-07-06T13:29:23;6.82;;;4.38;;
22924;SDS011;11628;51.072;3.712;2022-07-06T13:31:49;7.97;;;5.03;;
22924;SDS011;11628;51.072;3.712;2022-07-06T13:34:15;5.55;;;3.90;;
22924;SDS011;11628;51.072;3.712;2022-07-06T13:36:41;6.60;;;4.40;;
22924;SDS011;11628;51.072;3.712;2022-07-06T13:39:08;6.40;;;5.25;;
22924;SDS011;11628;51.072;3.712;2022-07-06T13:41:34;7.95;;;4.47;;
22924;SDS011;11628;51.072;3.712;2022-07-06T13:44:00;4.63;;;3.35;;
22924;SDS011;11628;51.072;3.712;2022-07-06T13:46:27;8.02;;;5.05;;
22924;SDS011;11628;51.072;3.712;2022-07-06T13:48:54;9.23;;;5.50;;
22924;SDS011;11628;51.072;3.712;2022-07-06T13:51:21;4.82;;;4.20;;
22924;SDS011;11628;51.072;3.712;2022-07-06T13:53:47;6.45;;;4.88;;
22924;SDS011;11628;51.072;3.712;2022-07-06T13:56:13;6.05;;;4.82;;
22924;SDS011;11628;51.072;3.712;2022-07-06T13:58:38;7.10;;;5.20;;
22924;SDS011;11628;51.072;3.712;2022-07-06T14:01:04;7.82;;;4.82;;
22924;SDS011;11628;51.072;3.712;2022-07-06T14:03:30;7.38;;;4.15;;
22924;SDS011;11628;51.072;3.712;2022-07-06T14:05:59;9.65;;;5.63;;
22924;SDS011;11628;51.072;3.712;2022-07-06T14:08:29;5.15;;;4.75;;
22924;SDS011;11628;51.072;3.712;2022-07-06T14:10:55;7.05;;;4.43;;
22924;SDS011;11628;51.072;3.712;2022-07-06T14:13:21;7.45;;;4.97;;
22924;SDS011;11628;51.072;3.712;2022-07-06T14:15:48;7.25;;;5.18;;
22924;SDS011;11628;51.072;3.712;2022-07-06T14:18:14;8.25;;;4.47;;
22924;SDS011;11628;51.072;3.712;2022-07-06T14:20:42;6.95;;;3.88;;
22924;SDS011;11628;51.072;3.712;2022-07-06T14:23:09;6.82;;;4.30;;
22924;SDS011;11628;51.072;3.712;2022-07-06T14:25:36;7.60;;;3.97;;
22924;SDS011;11628;51.072;3.712;2022-07-06T14:28:02;8.77;;;3.60;;
22924;SDS011;11628;51.072;3.712;2022-07-06T14:30:28;6.05;;;3.60;;
22924;SDS011;11628;51.072;3.712;2022-07-06T14:32:53;9.13;;;4.30;;
22924;SDS011;11628;51.072;3.712;2022-07-06T14:35:19;8.85;;;4.05;;
22924;SDS011;11628;51.072;3.712;2022-07-06T14:37:45;8.05;;;4.13;;
22924;SDS011;11628;51.072;3.712;2022-07-06T14:40:13;9.45;;;4.28;;
22924;SDS011;11628;51.072;3.712;2022-07-06T14:42:38;8.48;;;4.25;;
22924;SDS011;11628;51.072;3.712;2022-07-06T14:45:04;8.82;;;5.07;;
22924;SDS011;11628;51.072;3.712;2022-07-06T14:47:30;10.85;;;4.65;;
22924;SDS011;11628;51.072;3.712;2022-07-06T14:49:56;6.82;;;4.50;;
22924;SDS011;11628;51.072;3.712;2022-07-06T14:52:21;6.05;;;3.35;;
22924;SDS011;11628;51.072;3.712;2022-07-06T14:54:47;7.65;;;2.95;;
22924;SDS011;11628;51.072;3.712;2022-07-06T14:57:13;6.10;;;3.58;;
22924;SDS011;11628;51.072;3.712;2022-07-06T14:59:38;8.90;;;4.38;;
22924;SDS011;11628;51.072;3.712;2022-07-06T15:02:04;8.48;;;3.40;;
22924;SDS011;11628;51.072;3.712;2022-07-06T15:04:30;6.78;;;3.55;;
22924;SDS011;11628;51.072;3.712;2022-07-06T15:06:57;6.53;;;3.47;;
22924;SDS011;11628;51.072;3.712;2022-07-06T15:09:23;8.15;;;4.60;;
22924;SDS011;11628;51.072;3.712;2022-07-06T15:11:50;6.00;;;2.63;;
22924;SDS011;11628;51.072;3.712;2022-07-06T15:14:17;7.95;;;2.60;;